sensor_id;sensor_type;location;lat;lon;timestamp;P1;durP1;ratioP1;P2;durP2;ratioP2
62861;SDS011;48953;53.110;5.592;2024-01-10T00:00:51;15.30;;;11.68;;
62861;SDS011;48953;53.110;5.592;2024-01-10T00:03:17;14.52;;;11.00;;
62861;SDS011;48953;53.110;5.592;2024-01-10T00:05:43;14.52;;;10.93;;
62861;SDS011;48953;53.110;5.592;2024-01-10T00:08:09;14.30;;;11.15;;
62861;SDS011;48953;53.110;5.592;2024-01-10T00:10:35;13.90;;;11.13;;
62861;SDS011;48953;53.110;5.592;2024-01-10T00:13:01;15.05;;;11.48;;
62861;SDS011;48953;53.110;5.592;2024-01-10T00:15:27;14.30;;;11.07;;
62861;SDS011;48953;53.110;5.592;2024-01-10T00:17:53;14.75;;;11.60;;
62861;SDS011;48953;53.110;5.592;2024-01-10T00:20:19;16.90;;;12.00;;
62861;SDS011;48953;53.110;5.592;2024-01-10T00:22:45;13.32;;;11.10;;
62861;SDS011;48953;53.110;5.592;2024-01-10T00:25:11;14.40;;;11.57;;
62861;SDS011;48953;53.110;5.592;2024-01-10T00:27:38;14.43;;;11.55;;
62861;SDS011;48953;53.110;5.592;2024-01-10T00:30:04;13.52;;;11.10;;
62861;SDS011;48953;53.110;5.592;2024-01-10T00:32:30;15.93;;;11.15;;
62861;SDS011;48953;53.110;5.592;2024-01-10T00:34:56;13.10;;;10.82;;
62861;SDS011;48953;53.110;5.592;2024-01-10T00:37:22;14.68;;;11.38;;
62861;SDS011;48953;53.110;5.592;2024-01-10T00:39:48;13.20;;;10.88;;
62861;SDS011;48953;53.110;5.592;2024-01-10T00:42:14;13.07;;;10.45;;
62861;SDS011;48953;53.110;5.592;2024-01-10T00:44:40;13.60;;;10.45;;
62861;SDS011;48953;53.110;5.592;2024-01-10T00:47:06;13.18;;;10.45;;
62861;SDS011;48953;53.110;5.592;2024-01-10T00:49:32;13.30;;;10.35;;
62861;SDS011;48953;53.110;5.592;2024-01-10T00:51:58;13.43;;;10.90;;
62861;SDS011;48953;53.110;5.592;2024-01-10T00:54:24;14.25;;;10.00;;
62861;SDS011;48953;53.110;5.592;2024-01-10T00:56:50;14.20;;;10.27;;
62861;SDS011;48953;53.110;5.592;2024-01-10T00:59:16;15.23;;;11.80;;
62861;SDS011;48953;53.110;5.592;2024-01-10T01:01:42;15.15;;;11.07;;
62861;SDS011;48953;53.110;5.592;2024-01-10T01:04:08;13.20;;;9.05;;
62861;SDS011;48953;53.110;5.592;2024-01-10T01:06:34;15.63;;;11.95;;
62861;SDS011;48953;53.110;5.592;2024-01-10T01:09:00;13.52;;;11.02;;
62861;SDS011;48953;53.110;5.592;2024-01-10T01:11:27;15.27;;;11.68;;
62861;SDS011;48953;53.110;5.592;2024-01-10T01:13:53;15.15;;;11.40;;
62861;SDS011;48953;53.110;5.592;2024-01-10T01:16:19;16.63;;;11.90;;
62861;SDS011;48953;53.110;5.592;2024-01-10T01:18:45;14.50;;;11.82;;
62861;SDS011;48953;53.110;5.592;2024-01-10T01:21:11;16.45;;;12.25;;
62861;SDS011;48953;53.110;5.592;2024-01-10T01:23:37;15.82;;;12.35;;
62861;SDS011;48953;53.110;5.592;2024-01-10T01:26:03;16.90;;;12.82;;
62861;SDS011;48953;53.110;5.592;2024-01-10T01:28:29;15.50;;;12.05;;
62861;SDS011;48953;53.110;5.592;2024-01-10T01:30:56;15.15;;;11.27;;
62861;SDS011;48953;53.110;5.592;2024-01-10T01:33:22;16.45;;;12.70;;
62861;SDS011;48953;53.110;5.592;2024-01-10T01:35:48;17.50;;;13.48;;
62861;SDS011;48953;53.110;5.592;2024-01-10T01:38:14;18.00;;;13.63;;
62861;SDS011;48953;53.110;5.592;2024-01-10T01:40:40;16.75;;;13.23;;
62861;SDS011;48953;53.110;5.592;2024-01-10T01:43:19;18.60;;;13.88;;
62861;SDS011;48953;53.110;5.592;2024-01-10T01:45:46;18.50;;;13.90;;
62861;SDS011;48953;53.110;5.592;2024-01-10T01:48:13;18.13;;;14.38;;
62861;SDS011;48953;53.110;5.592;2024-01-10T01:50:39;19.83;;;14.70;;
62861;SDS011;48953;53.110;5.592;2024-01-10T01:53:06;19.80;;;14.93;;
62861;SDS011;48953;53.110;5.592;2024-01-10T01:55:32;18.35;;;14.82;;
62861;SDS011;48953;53.110;5.592;2024-01-10T01:57:58;20.35;;;13.40;;
62861;SDS011;48953;53.110;5.592;2024-01-10T02:00:24;20.60;;;15.52;;
62861;SDS011;48953;53.110;5.592;2024-01-10T02:02:50;20.83;;;15.60;;
62861;SDS011;48953;53.110;5.592;2024-01-10T02:05:17;20.83;;;15.82;;
62861;SDS011;48953;53.110;5.592;2024-01-10T02:07:43;23.30;;;16.10;;
62861;SDS011;48953;53.110;5.592;2024-01-10T02:10:09;22.58;;;16.65;;
62861;SDS011;48953;53.110;5.592;2024-01-10T02:12:35;22.90;;;16.88;;
62861;SDS011;48953;53.110;5.592;2024-01-10T02:15:01;23.40;;;16.20;;
62861;SDS011;48953;53.110;5.592;2024-01-10T02:17:28;23.63;;;15.85;;
62861;SDS011;48953;53.110;5.592;2024-01-10T02:20:07;24.30;;;17.65;;
62861;SDS011;48953;53.110;5.592;2024-01-10T02:22:33;24.00;;;18.25;;
62861;SDS011;48953;53.110;5.592;2024-01-10T02:24:59;26.02;;;19.50;;
62861;SDS011;48953;53.110;5.592;2024-01-10T02:27:25;27.35;;;18.20;;
62861;SDS011;48953;53.110;5.592;2024-01-10T02:29:51;25.05;;;19.13;;
62861;SDS011;48953;53.110;5.592;2024-01-10T02:32:18;24.52;;;18.52;;
62861;SDS011;48953;53.110;5.592;2024-01-10T02:34:44;26.80;;;19.88;;
62861;SDS011;48953;53.110;5.592;2024-01-10T02:37:10;27.98;;;19.80;;
62861;SDS011;48953;53.110;5.592;2024-01-10T02:39:36;25.23;;;17.80;;
62861;SDS011;48953;53.110;5.592;2024-01-10T02:42:03;26.55;;;18.80;;
62861;SDS011;48953;53.110;5.592;2024-01-10T02:44:29;23.50;;;16.33;;
62861;SDS011;48953;53.110;5.592;2024-01-10T02:46:55;23.85;;;17.83;;
62861;SDS011;48953;53.110;5.592;2024-01-10T02:49:21;25.80;;;18.73;;
62861;SDS011;48953;53.110;5.592;2024-01-10T02:51:48;23.00;;;18.05;;
62861;SDS011;48953;53.110;5.592;2024-01-10T02:54:14;25.73;;;18.20;;
62861;SDS011;48953;53.110;5.592;2024-01-10T02:56:40;26.10;;;18.80;;
62861;SDS011;48953;53.110;5.592;2024-01-10T02:59:06;24.77;;;18.50;;
62861;SDS011;48953;53.110;5.592;2024-01-10T03:01:32;26.48;;;18.95;;
62861;SDS011;48953;53.110;5.592;2024-01-10T03:03:58;25.98;;;18.58;;
62861;SDS011;48953;53.110;5.592;2024-01-10T03:06:24;23.13;;;14.20;;
62861;SDS011;48953;53.110;5.592;2024-01-10T03:08:50;26.75;;;19.67;;
62861;SDS011;48953;53.110;5.592;2024-01-10T03:11:17;25.75;;;19.15;;
62861;SDS011;48953;53.110;5.592;2024-01-10T03:13:46;26.38;;;18.60;;
62861;SDS011;48953;53.110;5.592;2024-01-10T03:16:12;27.27;;;18.80;;
62861;SDS011;48953;53.110;5.592;2024-01-10T03:18:39;26.05;;;19.33;;
62861;SDS011;48953;53.110;5.592;2024-01-10T03:21:05;22.33;;;17.40;;
62861;SDS011;48953;53.110;5.592;2024-01-10T03:23:31;25.60;;;18.58;;
62861;SDS011;48953;53.110;5.592;2024-01-10T03:25:57;25.85;;;18.70;;
62861;SDS011;48953;53.110;5.592;2024-01-10T03:28:23;26.77;;;18.55;;
62861;SDS011;48953;53.110;5.592;2024-01-10T03:30:49;24.67;;;18.25;;
62861;SDS011;48953;53.110;5.592;2024-01-10T03:33:16;23.20;;;14.82;;
62861;SDS011;48953;53.110;5.592;2024-01-10T03:35:42;23.63;;;18.00;;
62861;SDS011;48953;53.110;5.592;2024-01-10T03:38:08;22.58;;;16.88;;
62861;SDS011;48953;53.110;5.592;2024-01-10T03:40:34;24.42;;;17.77;;
62861;SDS011;48953;53.110;5.592;2024-01-10T03:43:00;23.25;;;17.38;;
62861;SDS011;48953;53.110;5.592;2024-01-10T03:45:26;24.27;;;17.15;;
62861;SDS011;48953;53.110;5.592;2024-01-10T03:47:53;22.58;;;17.27;;
62861;SDS011;48953;53.110;5.592;2024-01-10T03:50:19;23.80;;;17.58;;
62861;SDS011;48953;53.110;5.592;2024-01-10T03:52:45;21.15;;;14.88;;
62861;SDS011;48953;53.110;5.592;2024-01-10T03:55:12;20.80;;;11.27;;
62861;SDS011;48953;53.110;5.592;2024-01-10T03:57:38;23.42;;;16.48;;
62861;SDS011;48953;53.110;5.592;2024-01-10T04:00:07;21.13;;;16.70;;
62861;SDS011;48953;53.110;5.592;2024-01-10T04:02:36;21.10;;;16.17;;
62861;SDS011;48953;53.110;5.592;2024-01-10T04:05:05;19.45;;;14.00;;
62861;SDS011;48953;53.110;5.592;2024-01-10T04:07:31;20.27;;;15.73;;
62861;SDS011;48953;53.110;5.592;2024-01-10T04:09:58;22.10;;;16.58;;
62861;SDS011;48953;53.110;5.592;2024-01-10T04:12:24;21.33;;;16.35;;
62861;SDS011;48953;53.110;5.592;2024-01-10T04:14:50;19.98;;;16.02;;
62861;SDS011;48953;53.110;5.592;2024-01-10T04:17:16;21.67;;;16.52;;
62861;SDS011;48953;53.110;5.592;2024-01-10T04:19:42;22.25;;;17.33;;
62861;SDS011;48953;53.110;5.592;2024-01-10T04:22:08;23.92;;;16.55;;
62861;SDS011;48953;53.110;5.592;2024-01-10T04:24:34;20.40;;;16.52;;
62861;SDS011;48953;53.110;5.592;2024-01-10T04:27:00;22.35;;;17.58;;
62861;SDS011;48953;53.110;5.592;2024-01-10T04:29:26;23.63;;;17.33;;
62861;SDS011;48953;53.110;5.592;2024-01-10T04:31:52;23.58;;;17.13;;
62861;SDS011;48953;53.110;5.592;2024-01-10T04:34:18;21.95;;;16.48;;
62861;SDS011;48953;53.110;5.592;2024-01-10T04:36:44;23.55;;;13.45;;
62861;SDS011;48953;53.110;5.592;2024-01-10T04:39:10;23.00;;;16.83;;
62861;SDS011;48953;53.110;5.592;2024-01-10T04:41:36;22.48;;;17.23;;
62861;SDS011;48953;53.110;5.592;2024-01-10T04:44:02;22.08;;;17.98;;
62861;SDS011;48953;53.110;5.592;2024-01-10T04:46:28;23.10;;;16.48;;
62861;SDS011;48953;53.110;5.592;2024-01-10T04:48:54;23.60;;;17.10;;
62861;SDS011;48953;53.110;5.592;2024-01-10T04:51:20;20.25;;;11.57;;
62861;SDS011;48953;53.110;5.592;2024-01-10T04:53:47;21.27;;;16.55;;
62861;SDS011;48953;53.110;5.592;2024-01-10T04:56:13;22.65;;;17.42;;
62861;SDS011;48953;53.110;5.592;2024-01-10T04:58:39;21.05;;;14.82;;
62861;SDS011;48953;53.110;5.592;2024-01-10T05:01:05;37.00;;;22.15;;
62861;SDS011;48953;53.110;5.592;2024-01-10T05:03:31;28.20;;;16.13;;
62861;SDS011;48953;53.110;5.592;2024-01-10T05:05:57;30.85;;;19.33;;
62861;SDS011;48953;53.110;5.592;2024-01-10T05:08:23;34.33;;;19.60;;
62861;SDS011;48953;53.110;5.592;2024-01-10T05:10:49;26.88;;;17.55;;
62861;SDS011;48953;53.110;5.592;2024-01-10T05:13:15;30.98;;;19.92;;
62861;SDS011;48953;53.110;5.592;2024-01-10T05:15:41;31.60;;;20.70;;
62861;SDS011;48953;53.110;5.592;2024-01-10T05:18:07;27.77;;;18.75;;
62861;SDS011;48953;53.110;5.592;2024-01-10T05:20:33;25.45;;;18.60;;
62861;SDS011;48953;53.110;5.592;2024-01-10T05:22:59;24.45;;;16.20;;
62861;SDS011;48953;53.110;5.592;2024-01-10T05:25:26;25.23;;;17.88;;
62861;SDS011;48953;53.110;5.592;2024-01-10T05:27:52;28.48;;;17.95;;
62861;SDS011;48953;53.110;5.592;2024-01-10T05:30:19;26.75;;;17.85;;
62861;SDS011;48953;53.110;5.592;2024-01-10T05:32:45;23.73;;;16.83;;
62861;SDS011;48953;53.110;5.592;2024-01-10T05:35:11;25.73;;;17.70;;
62861;SDS011;48953;53.110;5.592;2024-01-10T05:37:37;24.75;;;15.50;;
62861;SDS011;48953;53.110;5.592;2024-01-10T05:40:03;26.13;;;19.23;;
62861;SDS011;48953;53.110;5.592;2024-01-10T05:42:32;24.17;;;17.88;;
62861;SDS011;48953;53.110;5.592;2024-01-10T05:45:01;54.38;;;28.50;;
62861;SDS011;48953;53.110;5.592;2024-01-10T05:47:28;47.35;;;26.30;;
62861;SDS011;48953;53.110;5.592;2024-01-10T05:49:53;28.52;;;19.88;;
62861;SDS011;48953;53.110;5.592;2024-01-10T05:52:20;25.40;;;18.27;;
62861;SDS011;48953;53.110;5.592;2024-01-10T05:54:47;22.60;;;17.40;;
62861;SDS011;48953;53.110;5.592;2024-01-10T05:57:13;25.05;;;17.20;;
62861;SDS011;48953;53.110;5.592;2024-01-10T05:59:42;22.83;;;17.65;;
62861;SDS011;48953;53.110;5.592;2024-01-10T06:02:08;23.10;;;17.65;;
62861;SDS011;48953;53.110;5.592;2024-01-10T06:04:34;23.67;;;18.42;;
62861;SDS011;48953;53.110;5.592;2024-01-10T06:07:00;24.35;;;18.30;;
62861;SDS011;48953;53.110;5.592;2024-01-10T06:09:26;26.85;;;18.60;;
62861;SDS011;48953;53.110;5.592;2024-01-10T06:11:53;25.40;;;19.17;;
62861;SDS011;48953;53.110;5.592;2024-01-10T06:14:19;25.05;;;18.17;;
62861;SDS011;48953;53.110;5.592;2024-01-10T06:16:45;24.75;;;17.90;;
62861;SDS011;48953;53.110;5.592;2024-01-10T06:19:11;24.90;;;19.45;;
62861;SDS011;48953;53.110;5.592;2024-01-10T06:21:37;28.60;;;20.98;;
62861;SDS011;48953;53.110;5.592;2024-01-10T06:24:03;29.35;;;22.50;;
62861;SDS011;48953;53.110;5.592;2024-01-10T06:26:29;29.52;;;21.33;;
62861;SDS011;48953;53.110;5.592;2024-01-10T06:28:55;29.88;;;22.98;;
62861;SDS011;48953;53.110;5.592;2024-01-10T06:31:21;29.25;;;20.17;;
62861;SDS011;48953;53.110;5.592;2024-01-10T06:33:48;31.13;;;21.83;;
62861;SDS011;48953;53.110;5.592;2024-01-10T06:36:14;30.88;;;21.40;;
62861;SDS011;48953;53.110;5.592;2024-01-10T06:38:40;29.17;;;21.98;;
62861;SDS011;48953;53.110;5.592;2024-01-10T06:41:07;32.08;;;23.25;;
62861;SDS011;48953;53.110;5.592;2024-01-10T06:43:33;26.45;;;17.40;;
62861;SDS011;48953;53.110;5.592;2024-01-10T06:45:59;33.53;;;23.52;;
62861;SDS011;48953;53.110;5.592;2024-01-10T06:48:25;31.67;;;23.17;;
62861;SDS011;48953;53.110;5.592;2024-01-10T06:50:51;30.98;;;23.77;;
62861;SDS011;48953;53.110;5.592;2024-01-10T06:53:17;31.42;;;23.50;;
62861;SDS011;48953;53.110;5.592;2024-01-10T06:55:43;33.72;;;23.77;;
62861;SDS011;48953;53.110;5.592;2024-01-10T06:58:09;31.13;;;24.13;;
62861;SDS011;48953;53.110;5.592;2024-01-10T07:00:36;33.30;;;23.98;;
62861;SDS011;48953;53.110;5.592;2024-01-10T07:03:03;34.30;;;23.58;;
62861;SDS011;48953;53.110;5.592;2024-01-10T07:05:29;31.98;;;24.13;;
62861;SDS011;48953;53.110;5.592;2024-01-10T07:07:59;35.00;;;26.50;;
62861;SDS011;48953;53.110;5.592;2024-01-10T07:10:28;36.65;;;26.58;;
62861;SDS011;48953;53.110;5.592;2024-01-10T07:12:57;31.35;;;23.90;;
62861;SDS011;48953;53.110;5.592;2024-01-10T07:15:23;33.10;;;24.95;;
62861;SDS011;48953;53.110;5.592;2024-01-10T07:17:49;32.65;;;24.70;;
62861;SDS011;48953;53.110;5.592;2024-01-10T07:20:15;31.13;;;24.50;;
62861;SDS011;48953;53.110;5.592;2024-01-10T07:22:41;36.70;;;27.60;;
62861;SDS011;48953;53.110;5.592;2024-01-10T07:25:09;33.95;;;24.20;;
62861;SDS011;48953;53.110;5.592;2024-01-10T07:27:35;33.20;;;23.83;;
62861;SDS011;48953;53.110;5.592;2024-01-10T07:30:07;32.08;;;24.45;;
62861;SDS011;48953;53.110;5.592;2024-01-10T07:32:42;30.67;;;23.13;;
62861;SDS011;48953;53.110;5.592;2024-01-10T07:35:09;31.50;;;23.95;;
62861;SDS011;48953;53.110;5.592;2024-01-10T07:37:38;33.25;;;23.17;;
62861;SDS011;48953;53.110;5.592;2024-01-10T07:40:05;27.48;;;18.50;;
62861;SDS011;48953;53.110;5.592;2024-01-10T07:42:34;31.42;;;23.15;;
62861;SDS011;48953;53.110;5.592;2024-01-10T07:45:01;31.85;;;23.35;;
62861;SDS011;48953;53.110;5.592;2024-01-10T07:47:30;32.27;;;22.20;;
62861;SDS011;48953;53.110;5.592;2024-01-10T07:49:57;31.92;;;23.42;;
62861;SDS011;48953;53.110;5.592;2024-01-10T07:52:23;33.35;;;24.23;;
62861;SDS011;48953;53.110;5.592;2024-01-10T07:54:49;30.27;;;23.33;;
62861;SDS011;48953;53.110;5.592;2024-01-10T07:57:15;31.65;;;23.75;;
62861;SDS011;48953;53.110;5.592;2024-01-10T07:59:43;31.48;;;23.85;;
62861;SDS011;48953;53.110;5.592;2024-01-10T08:02:09;31.45;;;23.60;;
62861;SDS011;48953;53.110;5.592;2024-01-10T08:04:36;31.23;;;23.33;;
62861;SDS011;48953;53.110;5.592;2024-01-10T08:07:02;31.35;;;23.95;;
62861;SDS011;48953;53.110;5.592;2024-01-10T08:09:28;29.63;;;22.40;;
62861;SDS011;48953;53.110;5.592;2024-01-10T08:11:54;28.48;;;22.23;;
62861;SDS011;48953;53.110;5.592;2024-01-10T08:14:20;28.40;;;21.20;;
62861;SDS011;48953;53.110;5.592;2024-01-10T08:16:46;26.17;;;20.42;;
62861;SDS011;48953;53.110;5.592;2024-01-10T08:19:13;28.50;;;21.52;;
62861;SDS011;48953;53.110;5.592;2024-01-10T08:21:39;27.58;;;21.02;;
62861;SDS011;48953;53.110;5.592;2024-01-10T08:24:05;27.70;;;20.85;;
62861;SDS011;48953;53.110;5.592;2024-01-10T08:26:32;25.80;;;20.50;;
62861;SDS011;48953;53.110;5.592;2024-01-10T08:28:57;25.85;;;19.67;;
62861;SDS011;48953;53.110;5.592;2024-01-10T08:31:24;23.90;;;17.75;;
62861;SDS011;48953;53.110;5.592;2024-01-10T08:33:51;24.90;;;17.35;;
62861;SDS011;48953;53.110;5.592;2024-01-10T08:36:17;24.73;;;18.23;;
62861;SDS011;48953;53.110;5.592;2024-01-10T08:38:43;24.17;;;16.48;;
62861;SDS011;48953;53.110;5.592;2024-01-10T08:41:09;23.38;;;16.98;;
62861;SDS011;48953;53.110;5.592;2024-01-10T08:43:36;22.63;;;17.92;;
62861;SDS011;48953;53.110;5.592;2024-01-10T08:46:02;20.00;;;16.42;;
62861;SDS011;48953;53.110;5.592;2024-01-10T08:48:28;18.20;;;12.57;;
62861;SDS011;48953;53.110;5.592;2024-01-10T08:50:54;20.10;;;15.15;;
62861;SDS011;48953;53.110;5.592;2024-01-10T08:53:21;19.42;;;14.65;;
62861;SDS011;48953;53.110;5.592;2024-01-10T08:55:47;18.73;;;14.35;;
62861;SDS011;48953;53.110;5.592;2024-01-10T08:58:13;18.25;;;13.43;;
62861;SDS011;48953;53.110;5.592;2024-01-10T09:00:39;18.42;;;14.00;;
62861;SDS011;48953;53.110;5.592;2024-01-10T09:03:05;18.85;;;13.95;;
62861;SDS011;48953;53.110;5.592;2024-01-10T09:05:32;18.15;;;13.88;;
62861;SDS011;48953;53.110;5.592;2024-01-10T09:07:58;15.20;;;12.60;;
62861;SDS011;48953;53.110;5.592;2024-01-10T09:10:25;17.10;;;12.80;;
62861;SDS011;48953;53.110;5.592;2024-01-10T09:12:53;16.40;;;12.27;;
62861;SDS011;48953;53.110;5.592;2024-01-10T09:15:19;17.98;;;13.25;;
62861;SDS011;48953;53.110;5.592;2024-01-10T09:17:45;16.77;;;12.77;;
62861;SDS011;48953;53.110;5.592;2024-01-10T09:20:11;16.33;;;12.95;;
62861;SDS011;48953;53.110;5.592;2024-01-10T09:22:38;17.45;;;12.52;;
62861;SDS011;48953;53.110;5.592;2024-01-10T09:25:04;14.13;;;9.02;;
62861;SDS011;48953;53.110;5.592;2024-01-10T09:27:34;16.40;;;12.25;;
62861;SDS011;48953;53.110;5.592;2024-01-10T09:30:02;17.98;;;13.20;;
62861;SDS011;48953;53.110;5.592;2024-01-10T09:32:30;18.27;;;13.10;;
62861;SDS011;48953;53.110;5.592;2024-01-10T09:34:56;19.60;;;12.65;;
62861;SDS011;48953;53.110;5.592;2024-01-10T09:37:22;18.33;;;13.13;;
62861;SDS011;48953;53.110;5.592;2024-01-10T09:39:48;17.75;;;13.00;;
62861;SDS011;48953;53.110;5.592;2024-01-10T09:42:14;19.05;;;13.82;;
62861;SDS011;48953;53.110;5.592;2024-01-10T09:44:41;20.08;;;13.88;;
62861;SDS011;48953;53.110;5.592;2024-01-10T09:47:07;21.42;;;15.18;;
62861;SDS011;48953;53.110;5.592;2024-01-10T09:49:33;21.10;;;13.45;;
62861;SDS011;48953;53.110;5.592;2024-01-10T09:51:59;17.15;;;12.20;;
62861;SDS011;48953;53.110;5.592;2024-01-10T09:54:29;16.95;;;12.52;;
62861;SDS011;48953;53.110;5.592;2024-01-10T09:56:55;17.15;;;11.27;;
62861;SDS011;48953;53.110;5.592;2024-01-10T09:59:22;18.25;;;13.13;;
62861;SDS011;48953;53.110;5.592;2024-01-10T10:01:48;17.33;;;12.43;;
62861;SDS011;48953;53.110;5.592;2024-01-10T10:04:14;19.38;;;12.63;;
62861;SDS011;48953;53.110;5.592;2024-01-10T10:06:42;18.67;;;12.27;;
62861;SDS011;48953;53.110;5.592;2024-01-10T10:09:07;16.02;;;11.40;;
62861;SDS011;48953;53.110;5.592;2024-01-10T10:11:35;16.67;;;12.38;;
62861;SDS011;48953;53.110;5.592;2024-01-10T10:14:19;19.00;;;12.95;;
62861;SDS011;48953;53.110;5.592;2024-01-10T10:16:45;19.38;;;12.90;;
62861;SDS011;48953;53.110;5.592;2024-01-10T10:19:11;20.20;;;13.32;;
62861;SDS011;48953;53.110;5.592;2024-01-10T10:21:38;18.58;;;12.55;;
62861;SDS011;48953;53.110;5.592;2024-01-10T10:24:04;19.40;;;13.18;;
62861;SDS011;48953;53.110;5.592;2024-01-10T10:26:34;18.60;;;12.43;;
62861;SDS011;48953;53.110;5.592;2024-01-10T10:29:00;19.23;;;12.30;;
62861;SDS011;48953;53.110;5.592;2024-01-10T10:31:27;17.75;;;11.65;;
62861;SDS011;48953;53.110;5.592;2024-01-10T10:33:56;20.63;;;12.63;;
62861;SDS011;48953;53.110;5.592;2024-01-10T10:36:23;21.92;;;13.45;;
62861;SDS011;48953;53.110;5.592;2024-01-10T10:38:49;20.67;;;13.05;;
62861;SDS011;48953;53.110;5.592;2024-01-10T10:41:15;21.65;;;12.38;;
62861;SDS011;48953;53.110;5.592;2024-01-10T10:43:41;16.95;;;11.50;;
62861;SDS011;48953;53.110;5.592;2024-01-10T10:46:08;21.48;;;13.15;;
62861;SDS011;48953;53.110;5.592;2024-01-10T10:48:41;19.27;;;12.57;;
62861;SDS011;48953;53.110;5.592;2024-01-10T10:53:34;22.15;;;12.88;;
62861;SDS011;48953;53.110;5.592;2024-01-10T10:56:02;20.58;;;12.02;;
62861;SDS011;48953;53.110;5.592;2024-01-10T10:58:30;21.92;;;11.85;;
62861;SDS011;48953;53.110;5.592;2024-01-10T11:00:56;23.58;;;13.45;;
62861;SDS011;48953;53.110;5.592;2024-01-10T11:03:23;21.17;;;11.63;;
62861;SDS011;48953;53.110;5.592;2024-01-10T11:05:49;22.42;;;12.55;;
62861;SDS011;48953;53.110;5.592;2024-01-10T11:08:16;23.15;;;12.73;;
62861;SDS011;48953;53.110;5.592;2024-01-10T11:10:43;24.25;;;14.40;;
62861;SDS011;48953;53.110;5.592;2024-01-10T11:23:50;20.88;;;11.95;;
62861;SDS011;48953;53.110;5.592;2024-01-10T11:26:19;22.67;;;12.07;;
62861;SDS011;48953;53.110;5.592;2024-01-10T11:28:45;20.80;;;12.23;;
62861;SDS011;48953;53.110;5.592;2024-01-10T11:31:13;19.42;;;11.50;;
62861;SDS011;48953;53.110;5.592;2024-01-10T11:33:40;19.48;;;10.13;;
62861;SDS011;48953;53.110;5.592;2024-01-10T11:36:09;21.75;;;12.18;;
62861;SDS011;48953;53.110;5.592;2024-01-10T11:38:41;23.27;;;11.23;;
62861;SDS011;48953;53.110;5.592;2024-01-10T11:41:10;20.70;;;11.32;;
62861;SDS011;48953;53.110;5.592;2024-01-10T11:43:36;17.40;;;10.65;;
62861;SDS011;48953;53.110;5.592;2024-01-10T11:46:02;20.50;;;11.18;;
62861;SDS011;48953;53.110;5.592;2024-01-10T11:48:30;18.92;;;10.60;;
62861;SDS011;48953;53.110;5.592;2024-01-10T11:50:57;19.38;;;10.30;;
62861;SDS011;48953;53.110;5.592;2024-01-10T11:53:40;21.67;;;11.63;;
62861;SDS011;48953;53.110;5.592;2024-01-10T11:56:10;18.63;;;10.10;;
62861;SDS011;48953;53.110;5.592;2024-01-10T12:01:22;20.13;;;10.23;;
62861;SDS011;48953;53.110;5.592;2024-01-10T12:03:49;17.35;;;9.25;;
62861;SDS011;48953;53.110;5.592;2024-01-10T12:06:18;18.65;;;9.10;;
62861;SDS011;48953;53.110;5.592;2024-01-10T12:08:45;18.35;;;10.73;;
62861;SDS011;48953;53.110;5.592;2024-01-10T12:11:11;17.75;;;9.95;;
62861;SDS011;48953;53.110;5.592;2024-01-10T12:13:37;17.52;;;9.73;;
62861;SDS011;48953;53.110;5.592;2024-01-10T12:16:03;18.42;;;10.15;;
62861;SDS011;48953;53.110;5.592;2024-01-10T12:18:29;16.67;;;9.10;;
62861;SDS011;48953;53.110;5.592;2024-01-10T12:20:55;17.75;;;9.23;;
62861;SDS011;48953;53.110;5.592;2024-01-10T12:23:21;16.65;;;9.10;;
62861;SDS011;48953;53.110;5.592;2024-01-10T12:25:50;15.27;;;8.15;;
62861;SDS011;48953;53.110;5.592;2024-01-10T12:28:16;17.73;;;9.40;;
62861;SDS011;48953;53.110;5.592;2024-01-10T12:30:42;15.23;;;8.93;;
62861;SDS011;48953;53.110;5.592;2024-01-10T12:33:09;16.88;;;9.52;;
62861;SDS011;48953;53.110;5.592;2024-01-10T12:35:35;16.80;;;9.20;;
62861;SDS011;48953;53.110;5.592;2024-01-10T12:38:02;16.73;;;8.82;;
62861;SDS011;48953;53.110;5.592;2024-01-10T12:40:28;16.60;;;9.23;;
62861;SDS011;48953;53.110;5.592;2024-01-10T12:43:04;16.67;;;10.07;;
62861;SDS011;48953;53.110;5.592;2024-01-10T12:45:30;18.02;;;9.40;;
62861;SDS011;48953;53.110;5.592;2024-01-10T12:47:57;16.75;;;9.23;;
62861;SDS011;48953;53.110;5.592;2024-01-10T12:50:23;15.00;;;8.65;;
62861;SDS011;48953;53.110;5.592;2024-01-10T12:52:52;15.25;;;7.95;;
62861;SDS011;48953;53.110;5.592;2024-01-10T12:55:18;19.02;;;10.13;;
62861;SDS011;48953;53.110;5.592;2024-01-10T12:57:44;17.73;;;9.63;;
62861;SDS011;48953;53.110;5.592;2024-01-10T13:00:10;16.35;;;8.82;;
62861;SDS011;48953;53.110;5.592;2024-01-10T13:02:38;17.20;;;9.18;;
62861;SDS011;48953;53.110;5.592;2024-01-10T13:05:05;16.70;;;9.27;;
62861;SDS011;48953;53.110;5.592;2024-01-10T13:07:37;16.08;;;8.60;;
62861;SDS011;48953;53.110;5.592;2024-01-10T13:10:04;16.27;;;8.68;;
62861;SDS011;48953;53.110;5.592;2024-01-10T13:12:30;17.00;;;9.55;;
62861;SDS011;48953;53.110;5.592;2024-01-10T13:14:56;16.23;;;8.82;;
62861;SDS011;48953;53.110;5.592;2024-01-10T13:17:22;15.75;;;8.70;;
62861;SDS011;48953;53.110;5.592;2024-01-10T13:19:48;16.23;;;8.60;;
62861;SDS011;48953;53.110;5.592;2024-01-10T13:22:14;14.80;;;8.55;;
62861;SDS011;48953;53.110;5.592;2024-01-10T13:24:44;16.30;;;9.32;;
62861;SDS011;48953;53.110;5.592;2024-01-10T13:27:10;15.43;;;8.93;;
62861;SDS011;48953;53.110;5.592;2024-01-10T13:29:36;18.42;;;9.70;;
62861;SDS011;48953;53.110;5.592;2024-01-10T13:32:03;15.80;;;8.88;;
62861;SDS011;48953;53.110;5.592;2024-01-10T13:34:29;16.45;;;8.70;;
62861;SDS011;48953;53.110;5.592;2024-01-10T13:36:55;14.45;;;8.48;;
62861;SDS011;48953;53.110;5.592;2024-01-10T13:39:21;14.27;;;8.77;;
62861;SDS011;48953;53.110;5.592;2024-01-10T13:41:47;15.30;;;9.15;;
62861;SDS011;48953;53.110;5.592;2024-01-10T13:44:13;15.68;;;9.00;;
62861;SDS011;48953;53.110;5.592;2024-01-10T13:46:39;17.98;;;9.18;;
62861;SDS011;48953;53.110;5.592;2024-01-10T13:49:06;16.83;;;8.90;;
62861;SDS011;48953;53.110;5.592;2024-01-10T13:51:32;16.98;;;9.15;;
62861;SDS011;48953;53.110;5.592;2024-01-10T13:53:58;14.77;;;8.45;;
62861;SDS011;48953;53.110;5.592;2024-01-10T13:56:24;15.00;;;8.40;;
62861;SDS011;48953;53.110;5.592;2024-01-10T13:58:52;17.17;;;8.98;;
62861;SDS011;48953;53.110;5.592;2024-01-10T14:01:18;16.20;;;8.10;;
62861;SDS011;48953;53.110;5.592;2024-01-10T14:03:44;15.50;;;8.40;;
62861;SDS011;48953;53.110;5.592;2024-01-10T14:06:10;15.80;;;8.50;;
62861;SDS011;48953;53.110;5.592;2024-01-10T14:08:37;15.13;;;8.05;;
62861;SDS011;48953;53.110;5.592;2024-01-10T14:11:05;14.40;;;8.40;;
62861;SDS011;48953;53.110;5.592;2024-01-10T14:13:31;16.13;;;8.95;;
62861;SDS011;48953;53.110;5.592;2024-01-10T14:15:57;15.05;;;8.93;;
62861;SDS011;48953;53.110;5.592;2024-01-10T14:18:23;14.45;;;8.00;;
62861;SDS011;48953;53.110;5.592;2024-01-10T14:20:49;12.80;;;7.70;;
62861;SDS011;48953;53.110;5.592;2024-01-10T14:23:15;15.23;;;7.97;;
62861;SDS011;48953;53.110;5.592;2024-01-10T14:25:42;13.27;;;8.05;;
62861;SDS011;48953;53.110;5.592;2024-01-10T14:28:08;15.30;;;8.63;;
62861;SDS011;48953;53.110;5.592;2024-01-10T14:30:34;18.65;;;8.57;;
62861;SDS011;48953;53.110;5.592;2024-01-10T14:33:00;17.10;;;9.23;;
62861;SDS011;48953;53.110;5.592;2024-01-10T14:35:27;15.70;;;8.20;;